Time;durP1;ratioP1;P1;durP2;ratioP2;P2;SDS_P1;SDS_P2;PMS_P1;PMS_P2;Temp;Humidity;BMP_temperature;BMP_pressure;BME280_temperature;BME280_humidity;BME280_pressure;Samples;Min_cycle;Max_cycle;Signal;HPM_P1;HPM_P2
2020/12/03 00:01:14;;;;;;;79.80;34.40;;;3.50;64.20;;;;;;5031174;28;20108;-83
2020/12/03 00:03:58;;;;;;;67.97;33.20;;;3.50;64.30;;;;;;5029881;28;20109;-84
2020/12/03 00:06:35;;;;;;;71.13;34.37;;;3.50;64.40;;;;;;5028639;28;20112;-83
2020/12/03 00:09:09;;;;;;;66.50;34.07;;;3.50;64.50;;;;;;5033205;28;20024;-84
2020/12/03 00:11:38;;;;;;;65.20;32.27;;;3.50;64.50;;;;;;5026638;28;20032;-83
2020/12/03 00:14:03;;;;;;;73.00;34.10;;;3.50;64.40;;;;;;5024268;28;20047;-83
2020/12/03 00:16:32;;;;;;;69.40;33.37;;;3.50;64.30;;;;;;5033701;28;20025;-84
2020/12/03 00:18:59;;;;;;;67.83;33.37;;;3.50;64.40;;;;;;5033385;28;20583;-84
2020/12/03 00:21:46;;;;;;;72.30;34.73;;;3.50;64.40;;;;;;5033026;28;20048;-83
2020/12/03 00:24:16;;;;;;;74.60;34.93;;;3.40;64.40;;;;;;5024801;28;20037;-84
2020/12/03 00:26:41;;;;;;;69.77;33.00;;;3.40;64.40;;;;;;5031718;28;20392;-83
2020/12/03 00:29:07;;;;;;;71.83;33.97;;;3.40;64.40;;;;;;5030039;28;20032;-84
2020/12/03 00:31:33;;;;;;;71.23;34.03;;;3.40;64.50;;;;;;5032201;28;20026;-84
2020/12/03 00:33:59;;;;;;;70.53;33.53;;;3.40;64.50;;;;;;5029434;28;20021;-84
2020/12/03 00:36:25;;;;;;;69.10;34.13;;;3.40;64.60;;;;;;5024778;28;20083;-83
2020/12/03 00:38:51;;;;;;;67.20;33.33;;;3.40;64.50;;;;;;5028090;28;20049;-84
2020/12/03 00:41:19;;;;;;;73.70;32.37;;;3.40;64.40;;;;;;5023149;28;20068;-83
2020/12/03 00:43:45;;;;;;;70.47;35.00;;;3.40;64.40;;;;;;5028583;28;20030;-83
2020/12/03 00:46:11;;;;;;;69.50;34.73;;;3.40;64.50;;;;;;5024439;28;20113;-83
2020/12/03 00:48:37;;;;;;;69.57;33.37;;;3.40;64.40;;;;;;5027741;28;20105;-84
2020/12/03 00:51:03;;;;;;;71.13;34.10;;;3.40;64.40;;;;;;5019980;28;20037;-84
2020/12/03 00:53:29;;;;;;;69.20;35.60;;;3.40;64.40;;;;;;5032982;28;20086;-84
2020/12/03 00:55:54;;;;;;;72.50;35.83;;;3.40;64.40;;;;;;5030660;28;20045;-84
2020/12/03 00:58:20;;;;;;;70.47;34.50;;;3.40;64.40;;;;;;5033856;28;20021;-84
2020/12/03 01:00:46;;;;;;;72.03;34.60;;;3.40;64.50;;;;;;5030753;28;20427;-84
2020/12/03 01:03:12;;;;;;;74.37;35.17;;;3.40;64.50;;;;;;5034196;28;20028;-84
2020/12/03 01:05:37;;;;;;;72.10;37.07;;;3.40;64.40;;;;;;5029521;28;20497;-83
2020/12/03 01:08:04;;;;;;;76.93;34.87;;;3.40;64.50;;;;;;5013549;28;20030;-84
2020/12/03 01:10:32;;;;;;;69.67;34.47;;;3.40;64.60;;;;;;5020957;28;20048;-84
2020/12/03 01:13:03;;;;;;;80.57;34.93;;;3.40;64.60;;;;;;5029656;28;20026;-83
2020/12/03 01:15:29;;;;;;;72.50;34.20;;;3.40;64.50;;;;;;5016964;28;20064;-83
2020/12/03 01:17:55;;;;;;;74.13;35.37;;;3.40;64.50;;;;;;5012869;28;20057;-83
2020/12/03 01:20:27;;;;;;;72.70;34.57;;;3.50;64.60;;;;;;5019422;28;20049;-83
2020/12/03 01:22:53;;;;;;;77.67;35.47;;;3.40;64.50;;;;;;5029798;28;20026;-83
2020/12/03 01:25:21;;;;;;;72.13;35.33;;;3.40;64.60;;;;;;5024562;28;20087;-83
2020/12/03 01:27:47;;;;;;;75.67;34.60;;;3.40;64.60;;;;;;5029285;28;20079;-83
2020/12/03 01:30:13;;;;;;;77.00;35.63;;;3.40;64.70;;;;;;5029519;28;20464;-83
2020/12/03 01:32:40;;;;;;;75.03;36.23;;;3.40;64.70;;;;;;5014173;28;20125;-83
2020/12/03 01:35:08;;;;;;;76.50;36.13;;;3.40;64.70;;;;;;5022754;28;20096;-83
2020/12/03 01:37:34;;;;;;;77.43;37.37;;;3.40;64.70;;;;;;5024782;28;20029;-83
2020/12/03 01:40:00;;;;;;;72.83;35.90;;;3.40;64.70;;;;;;5013080;28;20784;-83
2020/12/03 01:42:26;;;;;;;74.53;36.77;;;3.40;64.70;;;;;;5021375;28;20049;-83
2020/12/03 01:44:54;;;;;;;69.77;35.40;;;3.40;64.60;;;;;;5013437;28;20025;-83
2020/12/03 01:47:30;;;;;;;75.30;36.30;;;3.40;64.60;;;;;;5021695;28;20128;-83
2020/12/03 01:49:56;;;;;;;81.93;36.20;;;3.40;64.70;;;;;;5012429;28;20026;-83
2020/12/03 01:52:22;;;;;;;80.13;38.40;;;3.40;64.70;;;;;;5029722;28;20072;-84
2020/12/03 01:54:48;;;;;;;75.00;35.93;;;3.40;64.70;;;;;;5025009;28;20082;-83
2020/12/03 01:57:48;;;;;;;78.97;37.63;;;3.40;64.80;;;;;;5031559;28;20489;-83
2020/12/03 02:00:16;;;;;;;78.33;35.80;;;3.40;64.80;;;;;;5032647;28;20037;-83
2020/12/03 02:02:45;;;;;;;75.73;35.27;;;3.40;64.80;;;;;;5027889;28;20026;-83
2020/12/03 02:05:15;;;;;;;73.73;34.93;;;3.40;64.90;;;;;;5023788;28;20369;-83
2020/12/03 02:07:42;;;;;;;75.63;36.03;;;3.40;64.90;;;;;;5021616;28;20021;-83
2020/12/03 02:10:09;;;;;;;75.10;35.47;;;3.30;64.90;;;;;;5025161;28;20040;-83
2020/12/03 02:12:35;;;;;;;71.73;35.20;;;3.30;65.10;;;;;;5013618;28;20053;-82
2020/12/03 02:15:03;;;;;;;77.93;35.60;;;3.30;65.10;;;;;;5020607;28;20052;-83
2020/12/03 02:17:29;;;;;;;74.27;34.97;;;3.30;65.20;;;;;;5022934;28;20033;-83
2020/12/03 02:19:59;;;;;;;76.80;35.53;;;3.30;65.20;;;;;;5037352;28;20022;-83
2020/12/03 02:22:24;;;;;;;74.47;36.13;;;3.30;65.20;;;;;;5032413;28;20147;-84
2020/12/03 02:24:51;;;;;;;67.60;33.87;;;3.30;65.20;;;;;;5023200;28;20112;-83
2020/12/03 02:27:19;;;;;;;72.60;35.30;;;3.30;65.80;;;;;;5024985;28;20037;-83
2020/12/03 02:29:45;;;;;;;73.07;35.93;;;3.30;65.30;;;;;;5025639;28;20033;-83
2020/12/03 02:32:11;;;;;;;75.63;35.57;;;3.30;65.40;;;;;;5027780;28;20022;-84
2020/12/03 02:34:37;;;;;;;74.47;37.00;;;3.30;65.50;;;;;;5019216;28;20037;-83
2020/12/03 02:37:04;;;;;;;74.40;35.87;;;3.30;65.60;;;;;;5028932;28;20035;-83
2020/12/03 02:39:32;;;;;;;76.97;35.53;;;3.30;65.60;;;;;;5028046;28;20022;-83
2020/12/03 02:41:58;;;;;;;76.10;35.63;;;3.30;65.50;;;;;;5012829;28;20124;-84
2020/12/03 02:44:24;;;;;;;74.53;36.30;;;3.30;65.70;;;;;;5022515;28;20773;-83
2020/12/03 02:46:49;;;;;;;78.53;36.13;;;3.30;65.70;;;;;;5027819;28;20029;-83
2020/12/03 02:49:16;;;;;;;74.63;34.93;;;3.30;65.60;;;;;;5034303;28;20021;-83
2020/12/03 02:51:43;;;;;;;75.40;34.87;;;3.20;65.80;;;;;;5026912;28;20033;-83
2020/12/03 02:54:10;;;;;;;85.40;38.60;;;3.30;65.90;;;;;;5029847;28;20032;-83
2020/12/03 02:56:36;;;;;;;76.27;36.40;;;3.30;65.90;;;;;;5030444;28;20050;-83
2020/12/03 02:59:04;;;;;;;77.50;35.17;;;3.30;66.00;;;;;;5029578;28;20488;-83
2020/12/03 03:01:30;;;;;;;83.90;37.50;;;3.30;66.00;;;;;;5033135;28;20021;-83
2020/12/03 03:03:55;;;;;;;77.43;37.47;;;3.30;66.00;;;;;;5031497;28;20361;-83
2020/12/03 03:06:21;;;;;;;80.53;36.67;;;3.20;66.00;;;;;;5034065;28;20029;-82
2020/12/03 03:08:47;;;;;;;89.20;38.37;;;3.20;66.20;;;;;;5024913;28;20022;-83
2020/12/03 03:11:12;;;;;;;74.07;37.00;;;3.20;66.20;;;;;;5027736;28;20052;-83
2020/12/03 03:13:38;;;;;;;79.13;37.73;;;3.20;66.30;;;;;;5023515;28;20022;-83
2020/12/03 03:16:04;;;;;;;79.57;37.07;;;3.20;66.30;;;;;;5018171;28;20022;-83
2020/12/03 03:18:29;;;;;;;82.03;36.50;;;3.20;66.50;;;;;;5022060;28;20033;-83
2020/12/03 03:20:55;;;;;;;75.10;37.30;;;3.20;66.50;;;;;;5030877;28;20487;-83
2020/12/03 03:23:21;;;;;;;81.80;37.30;;;3.20;67.20;;;;;;5028332;28;20021;-83
2020/12/03 03:25:47;;;;;;;77.03;37.13;;;3.20;66.70;;;;;;5029260;28;21045;-82
2020/12/03 03:28:13;;;;;;;75.83;35.40;;;3.30;66.70;;;;;;5021411;28;20025;-83
2020/12/03 03:30:39;;;;;;;81.10;37.33;;;3.20;66.70;;;;;;5029437;28;20097;-83
2020/12/03 03:33:05;;;;;;;75.40;36.80;;;3.20;66.70;;;;;;5026769;28;20026;-83
2020/12/03 03:35:31;;;;;;;76.47;37.70;;;3.20;66.90;;;;;;5020386;28;20025;-83
2020/12/03 03:37:57;;;;;;;78.47;36.70;;;3.20;66.90;;;;;;5032709;28;20487;-83
2020/12/03 03:40:23;;;;;;;83.03;38.00;;;3.20;66.90;;;;;;5033672;28;20029;-83
2020/12/03 03:42:49;;;;;;;80.23;38.10;;;3.30;66.90;;;;;;5034220;28;20049;-83
2020/12/03 03:45:15;;;;;;;80.53;37.00;;;3.20;66.90;;;;;;5016701;28;20030;-83
2020/12/03 03:47:41;;;;;;;75.30;36.57;;;3.20;67.50;;;;;;5032490;28;20072;-83
2020/12/03 03:50:08;;;;;;;79.43;37.97;;;3.20;67.00;;;;;;5032432;28;20053;-83
2020/12/03 03:52:34;;;;;;;79.53;37.73;;;3.20;67.50;;;;;;5032551;28;20053;-83
2020/12/03 03:54:59;;;;;;;78.10;37.47;;;3.20;67.00;;;;;;5033428;28;20037;-83
2020/12/03 03:57:25;;;;;;;75.97;37.30;;;3.20;67.10;;;;;;5033620;28;20094;-83
2020/12/03 03:59:51;;;;;;;75.03;35.60;;;3.20;67.10;;;;;;5025121;28;20029;-83
2020/12/03 04:02:21;;;;;;;74.27;37.20;;;3.20;67.70;;;;;;5029696;28;20834;-83
2020/12/03 04:04:47;;;;;;;75.37;36.43;;;3.30;67.20;;;;;;5017808;28;20037;-83
2020/12/03 04:07:14;;;;;;;80.97;37.57;;;3.20;67.00;;;;;;5025132;28;20100;-83
2020/12/03 04:09:40;;;;;;;80.40;37.40;;;3.20;67.20;;;;;;5018226;28;20112;-83
2020/12/03 04:12:06;;;;;;;76.87;36.17;;;3.20;67.30;;;;;;5033012;28;20892;-84
2020/12/03 04:14:32;;;;;;;83.50;37.43;;;3.20;67.20;;;;;;5032906;28;20038;-82
2020/12/03 04:16:58;;;;;;;87.37;41.30;;;3.20;67.30;;;;;;5028002;28;20358;-83
2020/12/03 04:19:24;;;;;;;573.07;308.70;;;3.20;67.40;;;;;;5031867;28;20045;-83
2020/12/03 04:21:50;;;;;;;539.27;251.43;;;3.20;67.50;;;;;;5031996;28;20112;-82
2020/12/03 04:24:15;;;;;;;258.27;101.60;;;3.20;67.50;;;;;;5034726;28;20091;-83
2020/12/03 04:26:41;;;;;;;683.63;257.37;;;3.20;67.60;;;;;;5032220;28;20045;-83
2020/12/03 04:29:07;;;;;;;936.00;366.80;;;3.10;67.60;;;;;;5034583;28;20021;-82
2020/12/03 04:31:33;;;;;;;498.37;199.87;;;3.20;67.80;;;;;;5023525;28;20030;-83
2020/12/03 04:33:59;;;;;;;1645.10;639.17;;;3.20;67.80;;;;;;5018459;28;20026;-83
2020/12/03 04:36:25;;;;;;;532.23;247.03;;;3.20;67.70;;;;;;5030597;28;20033;-82
2020/12/03 04:38:51;;;;;;;529.70;256.27;;;3.20;67.80;;;;;;5032131;28;20098;-82
2020/12/03 04:41:17;;;;;;;174.83;92.43;;;3.20;67.80;;;;;;5027169;28;20053;-82
2020/12/03 04:43:48;;;;;;;115.83;59.07;;;3.20;67.80;;;;;;5029052;28;20036;-82
2020/12/03 04:46:25;;;;;;;111.40;57.97;;;3.20;67.80;;;;;;5017993;28;20435;-82
2020/12/03 04:49:23;;;;;;;180.27;93.53;;;3.20;67.80;;;;;;5018685;28;20045;-82
2020/12/03 04:52:04;;;;;;;145.50;75.10;;;3.10;67.90;;;;;;5030302;28;20034;-82
2020/12/03 04:54:30;;;;;;;105.73;52.83;;;3.10;68.10;;;;;;5031635;28;20041;-82
2020/12/03 04:57:17;;;;;;;90.33;43.90;;;3.10;68.00;;;;;;5030081;28;20041;-82
2020/12/03 05:00:17;;;;;;;83.77;40.00;;;3.20;68.00;;;;;;5012454;28;20026;-82
2020/12/03 05:02:57;;;;;;;78.37;40.27;;;3.20;68.00;;;;;;5027226;28;20088;-82
2020/12/03 05:05:28;;;;;;;81.60;39.93;;;3.20;68.00;;;;;;5027722;28;20037;-82
2020/12/03 05:08:03;;;;;;;85.60;39.53;;;3.20;68.00;;;;;;5013166;28;20092;-82
2020/12/03 05:10:42;;;;;;;83.93;39.57;;;3.20;68.10;;;;;;5016784;28;20034;-83
2020/12/03 05:13:19;;;;;;;87.10;39.30;;;3.10;68.10;;;;;;5017926;28;20029;-83
2020/12/03 05:15:49;;;;;;;83.10;38.63;;;3.10;68.10;;;;;;5019412;28;20052;-83
2020/12/03 05:18:43;;;;;;;87.63;39.23;;;3.20;68.20;;;;;;5032849;28;20911;-83
2020/12/03 05:21:14;;;;;;;82.23;36.93;;;3.10;68.20;;;;;;5016711;28;20045;-83
2020/12/03 05:23:40;;;;;;;79.00;37.97;;;3.20;68.20;;;;;;5019625;28;20033;-83
2020/12/03 05:26:16;;;;;;;77.60;37.90;;;3.10;68.10;;;;;;5029709;28;20028;-83
2020/12/03 05:28:48;;;;;;;80.27;38.07;;;3.20;68.40;;;;;;5013409;28;20032;-83
2020/12/03 05:31:35;;;;;;;81.15;34.55;;;3.20;68.30;;;;;;5013256;28;20063;-83
2020/12/03 05:34:30;;;;;;;75.43;36.67;;;3.10;68.40;;;;;;5032650;28;20030;-83
2020/12/03 05:36:55;;;;;;;75.83;36.03;;;3.10;68.40;;;;;;5028689;28;20041;-83
2020/12/03 05:39:28;;;;;;;75.57;36.87;;;3.20;68.40;;;;;;5013406;28;20034;-83
2020/12/03 05:42:00;;;;;;;74.03;36.63;;;3.10;68.30;;;;;;5021001;28;20045;-83
2020/12/03 05:44:56;;;;;;;75.90;36.83;;;3.20;68.30;;;;;;5032520;28;20499;-83
2020/12/03 05:47:28;;;;;;;75.73;36.40;;;3.20;68.30;;;;;;5016647;28;20305;-83
2020/12/03 05:50:07;;;;;;;80.27;36.40;;;3.20;68.20;;;;;;5037791;28;20041;-83
2020/12/03 05:52:34;;;;;;;78.67;35.87;;;3.20;68.30;;;;;;5030443;28;20029;-83
2020/12/03 05:55:11;;;;;;;80.60;37.83;;;3.20;68.30;;;;;;5025218;28;20038;-83
2020/12/03 05:57:43;;;;;;;75.70;38.97;;;3.10;68.40;;;;;;5029771;28;20084;-83
2020/12/03 06:00:12;;;;;;;83.55;39.50;;;3.10;68.30;;;;;;5015368;28;20037;-83
2020/12/03 06:03:02;;;;;;;82.63;37.50;;;3.20;68.40;;;;;;5027099;28;20029;-83
2020/12/03 06:05:46;;;;;;;75.93;36.47;;;3.20;68.40;;;;;;5031482;28;20380;-83
2020/12/03 06:08:29;;;;;;;75.23;36.70;;;3.20;68.40;;;;;;5031992;28;20032;-83
2020/12/03 06:11:10;;;;;;;;;;;3.20;68.30;;;;;;5031289;28;20029;-83
2020/12/03 06:13:54;;;;;;;80.93;36.77;;;3.20;68.30;;;;;;5030693;28;20317;-83
2020/12/03 06:16:37;;;;;;;83.90;38.03;;;3.10;68.00;;;;;;5019100;28;20064;-83
2020/12/03 06:19:50;;;;;;;85.93;39.30;;;3.10;68.20;;;;;;5031322;28;20025;-83
2020/12/03 06:22:33;;;;;;;79.60;37.03;;;3.20;68.40;;;;;;5009796;28;20030;-83
2020/12/03 06:25:34;;;;;;;78.90;38.07;;;3.20;68.30;;;;;;5031165;28;20029;-83
2020/12/03 06:28:13;;;;;;;74.53;35.57;;;3.10;68.30;;;;;;5023392;28;20132;-82
2020/12/03 06:31:10;;;;;;;78.83;35.87;;;3.20;68.30;;;;;;5033680;28;20120;-82
2020/12/03 06:33:37;;;;;;;82.97;38.47;;;3.10;68.30;;;;;;5032567;28;20044;-82
2020/12/03 06:36:15;;;;;;;76.53;37.90;;;3.20;68.30;;;;;;5036615;28;20021;-82
2020/12/03 06:39:19;;;;;;;76.90;37.20;;;3.20;68.20;;;;;;5055757;28;20060;-83
2020/12/03 06:41:54;;;;;;;78.50;37.83;;;3.10;68.30;;;;;;5022213;28;20484;-83
2020/12/03 06:44:20;;;;;;;75.00;37.43;;;3.10;68.30;;;;;;5028948;28;20111;-83
2020/12/03 06:47:13;;;;;;;74.27;34.93;;;3.10;68.20;;;;;;5031976;28;20458;-83
2020/12/03 06:50:16;;;;;;;75.63;35.00;;;3.10;68.30;;;;;;5036640;28;20071;-83
2020/12/03 06:53:26;;;;;;;76.43;35.83;;;3.10;68.20;;;;;;5034780;28;20374;-82
2020/12/03 06:56:17;;;;;;;73.20;34.37;;;3.10;68.20;;;;;;5035522;28;20120;-82
2020/12/03 06:59:19;;;;;;;72.83;34.03;;;3.00;68.30;;;;;;5034538;28;20048;-82
2020/12/03 07:02:09;;;;;;;85.77;38.90;;;3.00;68.40;;;;;;5028269;28;20503;-82
2020/12/03 07:04:52;;;;;;;93.20;43.43;;;3.00;68.20;;;;;;5036463;28;20116;-83
2020/12/03 07:07:46;;;;;;;92.43;43.03;;;3.00;68.50;;;;;;5019781;28;20053;-82
2020/12/03 07:10:33;;;;;;;97.80;43.77;;;3.10;68.50;;;;;;5019950;28;20472;-82
2020/12/03 07:13:21;;;;;;;85.10;41.63;;;3.10;68.20;;;;;;5030683;28;20673;-82
2020/12/03 07:16:20;;;;;;;78.90;38.70;;;3.10;68.20;;;;;;5025690;28;20044;-82
2020/12/03 07:19:12;;;;;;;72.53;34.97;;;3.10;68.20;;;;;;5019589;28;20030;-82
2020/12/03 07:22:06;;;;;;;78.27;35.50;;;3.10;68.10;;;;;;5033222;28;20038;-82
2020/12/03 07:24:34;;;;;;;71.83;35.50;;;3.10;68.20;;;;;;5029038;28;20388;-82
2020/12/03 07:27:10;;;;;;;76.43;35.33;;;3.20;68.10;;;;;;5034661;28;20093;-83
2020/12/03 07:29:55;;;;;;;77.17;36.93;;;3.20;68.10;;;;;;5028969;28;20033;-82
2020/12/03 07:32:26;;;;;;;73.90;35.80;;;3.10;68.10;;;;;;5029121;28;20029;-82
2020/12/03 07:35:19;;;;;;;74.13;35.70;;;3.10;68.10;;;;;;5017936;28;20038;-82
2020/12/03 07:38:01;;;;;;;70.88;34.35;;;3.20;68.20;;;;;;5021768;28;20030;-82
2020/12/03 07:40:27;;;;;;;71.95;34.72;;;3.20;68.00;;;;;;5026135;28;20036;-82
2020/12/03 07:43:04;;;;;;;77.60;35.40;;;3.20;68.00;;;;;;5034538;28;20602;-82
2020/12/03 07:45:43;;;;;;;77.43;35.73;;;3.20;68.00;;;;;;5031299;28;20026;-82
2020/12/03 07:48:16;;;;;;;82.33;36.33;;;3.20;68.10;;;;;;5044408;28;20029;-82
2020/12/03 07:50:49;;;;;;;77.30;38.17;;;3.20;68.20;;;;;;5024153;28;20154;-82
2020/12/03 07:53:15;;;;;;;73.90;35.07;;;3.20;68.00;;;;;;5019243;28;20499;-82
2020/12/03 07:55:44;;;;;;;68.07;34.23;;;3.30;68.10;;;;;;5023352;28;20037;-82
2020/12/03 07:58:28;;;;;;;77.27;37.17;;;3.30;68.10;;;;;;5034794;28;20099;-82
2020/12/03 08:00:54;;;;;;;76.90;36.40;;;3.40;68.00;;;;;;5024403;28;20358;-82
2020/12/03 08:03:41;;;;;;;69.40;34.60;;;3.40;67.80;;;;;;5037863;28;20029;-82
2020/12/03 08:06:29;;;;;;;81.17;37.37;;;3.40;67.90;;;;;;5032350;28;20037;-82
2020/12/03 08:09:01;;;;;;;74.23;37.13;;;3.40;67.90;;;;;;5020298;28;20068;-82
2020/12/03 08:11:40;;;;;;;84.73;37.53;;;3.50;67.90;;;;;;5019787;28;20361;-82
2020/12/03 08:14:41;;;;;;;81.43;36.40;;;3.60;67.90;;;;;;5034141;28;20029;-82
2020/12/03 08:17:16;;;;;;;77.97;37.53;;;3.60;67.70;;;;;;5030252;28;20033;-82
2020/12/03 08:19:47;;;;;;;70.87;36.90;;;3.70;67.60;;;;;;5031647;28;20022;-83
2020/12/03 08:22:24;;;;;;;75.03;36.50;;;3.70;67.50;;;;;;5031102;28;20040;-83
2020/12/03 08:25:11;;;;;;;83.27;36.40;;;3.70;67.50;;;;;;5030466;28;20068;-82
2020/12/03 08:27:38;;;;;;;70.00;34.23;;;3.80;67.50;;;;;;5017075;28;20028;-83
2020/12/03 08:30:38;;;;;;;64.57;35.73;;;3.80;67.20;;;;;;5025157;28;20022;-83
2020/12/03 08:33:35;;;;;;;67.07;34.90;;;3.90;67.20;;;;;;5029212;28;20515;-83
2020/12/03 08:36:08;;;;;;;63.37;33.83;;;3.90;67.20;;;;;;5036643;28;20592;-82
2020/12/03 08:38:41;;;;;;;72.57;34.97;;;4.00;67.10;;;;;;5017276;28;20025;-84
2020/12/03 08:41:10;;;;;;;;;;;4.00;67.00;;;;;;5017671;28;20040;-83
2020/12/03 08:43:49;;;;;;;72.40;34.93;;;4.00;66.80;;;;;;5022366;28;20745;-82
2020/12/03 08:46:25;;;;;;;74.23;38.17;;;4.00;67.00;;;;;;5028504;28;20031;-82
2020/12/03 08:48:51;;;;;;;67.13;35.53;;;4.00;67.20;;;;;;5027259;28;20033;-82
2020/12/03 08:51:18;;;;;;;74.00;35.03;;;4.00;67.10;;;;;;5026450;28;20030;-82
2020/12/03 08:53:48;;;;;;;68.17;34.40;;;4.10;67.40;;;;;;5022870;28;20025;-83
2020/12/03 08:56:17;;;;;;;79.17;36.27;;;4.20;67.10;;;;;;5014689;28;20022;-82
2020/12/03 08:58:56;;;;;;;77.33;36.50;;;4.30;66.90;;;;;;5024484;28;20024;-82
2020/12/03 09:01:23;;;;;;;72.47;35.90;;;4.30;66.90;;;;;;5030972;28;20464;-83
2020/12/03 09:03:51;;;;;;;75.50;38.37;;;4.30;66.80;;;;;;5019234;28;20472;-83
2020/12/03 09:06:17;;;;;;;72.70;36.23;;;4.40;66.90;;;;;;5025688;28;20916;-83
2020/12/03 09:08:44;;;;;;;70.10;35.17;;;4.40;66.60;;;;;;5016473;28;20021;-83
2020/12/03 09:11:10;;;;;;;74.40;36.10;;;4.40;66.50;;;;;;5031768;28;20377;-83
2020/12/03 09:13:36;;;;;;;71.87;38.47;;;4.40;66.50;;;;;;5020011;28;20038;-83
2020/12/03 09:16:03;;;;;;;70.63;37.20;;;4.40;66.20;;;;;;5020312;28;20030;-83
2020/12/03 09:18:28;;;;;;;82.40;37.97;;;4.40;66.40;;;;;;5034136;28;20033;-83
2020/12/03 09:20:54;;;;;;;76.77;37.67;;;4.30;66.40;;;;;;5026405;28;20029;-83
2020/12/03 09:23:26;;;;;;;72.33;37.20;;;4.20;66.60;;;;;;5032460;28;20026;-83
2020/12/03 09:25:51;;;;;;;73.57;36.10;;;4.20;66.90;;;;;;5022011;28;20037;-83
2020/12/03 09:28:20;;;;;;;69.60;35.97;;;4.30;66.80;;;;;;5020673;28;20128;-83
2020/12/03 09:30:48;;;;;;;71.43;35.57;;;4.40;67.10;;;;;;5017858;28;20048;-83
2020/12/03 09:33:22;;;;;;;68.37;34.70;;;4.40;66.20;;;;;;5027227;28;20053;-83
2020/12/03 09:35:49;;;;;;;64.07;34.17;;;4.30;66.30;;;;;;5013887;28;20713;-83
2020/12/03 09:38:17;;;;;;;68.13;34.30;;;4.40;66.30;;;;;;5026461;28;20069;-83
2020/12/03 09:40:48;;;;;;;75.00;36.80;;;4.50;66.10;;;;;;5031934;28;20030;-83
2020/12/03 09:43:21;;;;;;;72.47;36.23;;;4.50;65.90;;;;;;5027326;28;20049;-83
2020/12/03 09:45:53;;;;;;;68.27;34.73;;;4.60;66.00;;;;;;5017858;28;20034;-82
2020/12/03 09:48:20;;;;;;;74.10;36.80;;;4.50;65.70;;;;;;5018661;28;20029;-82
2020/12/03 09:50:49;;;;;;;73.73;37.00;;;4.60;65.90;;;;;;5027330;28;20025;-83
2020/12/03 09:53:17;;;;;;;82.33;37.87;;;4.60;65.90;;;;;;5031261;28;20022;-83
2020/12/03 09:55:44;;;;;;;73.13;35.53;;;4.80;65.70;;;;;;5024872;28;20560;-83
2020/12/03 09:58:10;;;;;;;66.27;35.40;;;4.80;65.50;;;;;;5030438;28;20029;-83
2020/12/03 10:00:39;;;;;;;67.07;33.80;;;4.80;65.30;;;;;;5025430;28;20104;-83
2020/12/03 10:03:08;;;;;;;68.87;35.83;;;4.90;65.40;;;;;;5014078;28;20051;-83
2020/12/03 10:05:54;;;;;;;61.60;33.63;;;5.00;65.30;;;;;;5016090;28;20022;-83
2020/12/03 10:08:19;;;;;;;63.07;33.97;;;5.20;65.00;;;;;;5009811;28;20037;-83
2020/12/03 10:11:19;;;;;;;67.03;33.87;;;5.30;64.70;;;;;;5030592;28;20017;-83
2020/12/03 10:14:09;;;;;;;65.13;33.93;;;5.50;64.40;;;;;;5020063;28;20050;-83
2020/12/03 10:16:38;;;;;;;58.40;32.53;;;5.70;64.30;;;;;;5024516;28;20025;-83
2020/12/03 10:19:07;;;;;;;65.37;33.47;;;5.80;63.80;;;;;;5026501;28;20048;-83
2020/12/03 10:21:41;;;;;;;65.37;35.33;;;5.70;63.60;;;;;;5023357;28;20037;-84
2020/12/03 10:24:17;;;;;;;68.40;34.53;;;5.70;63.50;;;;;;5024065;28;20033;-83
2020/12/03 10:26:50;;;;;;;63.03;31.80;;;5.70;63.50;;;;;;5022906;28;20366;-83
2020/12/03 10:29:30;;;;;;;74.67;36.17;;;5.60;63.50;;;;;;5027181;28;20136;-83
2020/12/03 10:32:00;;;;;;;67.30;36.33;;;5.50;63.40;;;;;;5022716;28;20032;-83
2020/12/03 10:34:29;;;;;;;68.63;34.97;;;5.60;63.60;;;;;;5028504;28;20067;-83
2020/12/03 10:36:59;;;;;;;67.07;35.80;;;5.60;63.10;;;;;;5027749;28;20037;-83
2020/12/03 10:39:35;;;;;;;68.80;38.60;;;5.60;63.20;;;;;;5023614;28;20436;-83
2020/12/03 10:42:01;;;;;;;73.07;37.77;;;5.60;63.20;;;;;;5031392;28;20052;-83
2020/12/03 10:44:29;;;;;;;74.20;38.53;;;5.70;63.30;;;;;;5018131;28;20042;-83
2020/12/03 10:47:01;;;;;;;66.97;35.70;;;5.90;63.10;;;;;;5014498;28;20472;-83
2020/12/03 10:49:28;;;;;;;65.43;35.33;;;6.20;63.10;;;;;;5023990;28;20596;-83
2020/12/03 10:52:01;;;;;;;67.10;36.77;;;6.40;62.50;;;;;;5020925;28;20432;-83
2020/12/03 10:54:31;;;;;;;71.53;37.13;;;6.70;61.90;;;;;;5016970;28;20026;-83
2020/12/03 10:57:16;;;;;;;63.23;34.67;;;6.70;61.60;;;;;;5026412;28;20044;-83
2020/12/03 10:59:42;;;;;;;61.63;34.20;;;6.60;61.10;;;;;;5024897;28;20036;-83
2020/12/03 11:02:47;;;;;;;59.73;34.70;;;6.50;61.20;;;;;;5020138;28;20033;-83
2020/12/03 11:05:13;;;;;;;65.80;34.97;;;6.40;61.30;;;;;;5026279;28;20025;-84
2020/12/03 11:07:50;;;;;;;63.33;36.20;;;6.40;61.30;;;;;;5038716;28;20193;-84
2020/12/03 11:10:16;;;;;;;67.10;36.60;;;6.60;61.10;;;;;;5030966;28;20543;-84
2020/12/03 11:12:43;;;;;;;64.70;33.73;;;6.80;61.10;;;;;;5030626;28;20026;-84
2020/12/03 11:15:09;;;;;;;65.53;35.37;;;7.00;60.70;;;;;;5033676;28;20116;-84
2020/12/03 11:17:50;;;;;;;62.87;35.13;;;7.20;60.40;;;;;;5034793;28;20144;-83
2020/12/03 11:20:20;;;;;;;69.40;35.47;;;7.30;59.90;;;;;;5032932;28;20030;-84
2020/12/03 11:23:00;;;;;;;62.30;35.47;;;7.40;60.00;;;;;;5032832;28;20026;-85
2020/12/03 11:25:28;;;;;;;63.37;36.57;;;7.40;59.90;;;;;;5027017;28;20397;-84
2020/12/03 11:28:00;;;;;;;60.33;33.47;;;7.40;59.70;;;;;;5017617;28;20095;-84
2020/12/03 11:30:28;;;;;;;65.40;36.75;;;7.50;59.40;;;;;;5022826;28;20030;-84
2020/12/03 11:32:56;;;;;;;74.43;38.43;;;7.50;59.00;;;;;;5024950;28;20025;-84
2020/12/03 11:35:32;;;;;;;72.70;37.27;;;7.40;58.90;;;;;;5034643;28;20468;-84
2020/12/03 11:38:01;;;;;;;68.53;35.07;;;7.40;59.20;;;;;;5030026;28;20104;-84
2020/12/03 11:46:02;;;;;;;51.07;30.13;;;7.50;58.30;;;;;;5032798;28;20021;-84
2020/12/03 11:51:01;;;;;;;56.87;31.87;;;7.60;57.90;;;;;;5035551;28;20036;-84
2020/12/03 11:53:26;;;;;;;57.90;33.13;;;7.60;57.60;;;;;;5034364;28;20029;-84
2020/12/03 11:55:52;;;;;;;52.83;31.80;;;7.70;57.40;;;;;;5030149;28;20400;-85
2020/12/03 11:58:24;;;;;;;49.47;29.50;;;7.80;57.20;;;;;;5034909;28;20025;-85
2020/12/03 12:01:07;;;;;;;52.17;28.73;;;7.90;57.10;;;;;;5033971;28;20109;-84
2020/12/03 12:03:33;;;;;;;47.53;27.08;;;7.90;56.80;;;;;;5020204;28;20029;-84
2020/12/03 12:06:16;;;;;;;45.27;27.33;;;8.00;56.50;;;;;;5017234;28;20472;-84
2020/12/03 12:08:52;;;;;;;46.70;26.30;;;7.90;56.20;;;;;;5033832;28;20025;-84
2020/12/03 12:11:27;;;;;;;45.83;25.97;;;8.00;56.30;;;;;;5029306;28;20025;-84
2020/12/03 12:13:52;;;;;;;43.10;25.10;;;8.00;55.90;;;;;;5020203;28;20036;-84
2020/12/03 12:16:18;;;;;;;42.00;24.53;;;8.00;55.50;;;;;;5014306;28;20481;-85
2020/12/03 12:18:47;;;;;;;41.87;25.90;;;7.90;55.40;;;;;;5014283;28;20021;-84
2020/12/03 12:21:12;;;;;;;43.30;25.40;;;7.90;55.10;;;;;;5025008;28;20026;-84
2020/12/03 12:23:38;;;;;;;46.53;26.27;;;7.90;55.30;;;;;;5034438;28;20022;-83
2020/12/03 12:26:04;;;;;;;48.73;27.67;;;7.90;55.10;;;;;;5019714;28;20078;-85
2020/12/03 12:28:29;;;;;;;43.77;25.80;;;7.80;55.10;;;;;;5029495;28;20093;-85
2020/12/03 12:30:55;;;;;;;47.03;27.17;;;7.80;54.80;;;;;;5033297;28;20014;-84
2020/12/03 12:33:21;;;;;;;47.30;28.37;;;7.70;55.00;;;;;;5029522;28;20505;-84
2020/12/03 12:35:46;;;;;;;47.87;28.50;;;7.80;55.10;;;;;;5019742;28;20063;-85
2020/12/03 12:38:13;;;;;;;48.00;28.90;;;7.80;55.00;;;;;;5026785;28;20025;-84
2020/12/03 12:40:39;;;;;;;47.93;29.13;;;7.80;55.00;;;;;;5033458;28;20035;-84
2020/12/03 12:43:05;;;;;;;54.40;31.57;;;7.70;54.90;;;;;;5024866;28;20049;-84
2020/12/03 12:45:30;;;;;;;45.23;25.93;;;7.70;55.50;;;;;;5039912;28;20071;-84
2020/12/03 12:47:57;;;;;;;48.90;28.70;;;7.70;55.10;;;;;;5015550;28;20113;-84
2020/12/03 12:50:22;;;;;;;52.43;31.17;;;7.70;55.20;;;;;;5048173;28;20029;-85
2020/12/03 12:52:48;;;;;;;52.90;30.33;;;7.60;55.30;;;;;;5032959;28;20387;-84
2020/12/03 12:55:14;;;;;;;52.90;30.43;;;7.60;55.40;;;;;;5019161;28;20038;-84
2020/12/03 12:57:39;;;;;;;46.10;27.87;;;7.70;55.40;;;;;;5021732;28;20096;-84
2020/12/03 13:00:06;;;;;;;57.80;32.10;;;7.60;55.50;;;;;;5023441;28;20064;-84
2020/12/03 13:02:32;;;;;;;56.07;33.33;;;7.60;55.50;;;;;;5013476;28;20022;-84
2020/12/03 13:04:57;;;;;;;44.20;26.27;;;7.60;55.60;;;;;;5017681;28;20365;-84
2020/12/03 13:07:23;;;;;;;46.80;29.17;;;7.50;55.50;;;;;;5016231;28;20018;-84
2020/12/03 13:09:49;;;;;;;46.77;28.57;;;7.40;55.50;;;;;;5015121;28;20659;-85